sensor_id;sensor_type;location;lat;lon;timestamp;temperature;humidity
72380;SHT30;60354;47.798;12.472;2023-07-13T00:00:28;18.77;90.19
72380;SHT30;60354;47.798;12.472;2023-07-13T00:02:54;18.81;89.78
72380;SHT30;60354;47.798;12.472;2023-07-13T00:05:20;18.78;89.80
72380;SHT30;60354;47.798;12.472;2023-07-13T00:07:46;18.73;90.24
72380;SHT30;60354;47.798;12.472;2023-07-13T00:10:11;18.61;90.69
72380;SHT30;60354;47.798;12.472;2023-07-13T00:12:38;18.55;91.09
72380;SHT30;60354;47.798;12.472;2023-07-13T00:15:16;18.43;90.93
72380;SHT30;60354;47.798;12.472;2023-07-13T00:17:42;18.39;91.49
72380;SHT30;60354;47.798;12.472;2023-07-13T00:20:10;18.40;91.81
72380;SHT30;60354;47.798;12.472;2023-07-13T00:22:36;18.36;92.06
72380;SHT30;60354;47.798;12.472;2023-07-13T00:25:02;18.33;91.51
72380;SHT30;60354;47.798;12.472;2023-07-13T00:27:28;18.35;91.48
72380;SHT30;60354;47.798;12.472;2023-07-13T00:29:57;18.37;91.83
72380;SHT30;60354;47.798;12.472;2023-07-13T00:32:23;18.35;91.70
72380;SHT30;60354;47.798;12.472;2023-07-13T00:34:51;18.33;91.29
72380;SHT30;60354;47.798;12.472;2023-07-13T00:37:17;18.35;91.36
72380;SHT30;60354;47.798;12.472;2023-07-13T00:39:43;18.29;91.54
72380;SHT30;60354;47.798;12.472;2023-07-13T00:42:09;18.29;91.76
72380;SHT30;60354;47.798;12.472;2023-07-13T00:44:35;18.21;91.70
72380;SHT30;60354;47.798;12.472;2023-07-13T00:47:00;18.25;91.91
72380;SHT30;60354;47.798;12.472;2023-07-13T00:49:27;18.25;92.10
72380;SHT30;60354;47.798;12.472;2023-07-13T00:52:06;18.26;91.09
72380;SHT30;60354;47.798;12.472;2023-07-13T00:54:35;18.29;90.68
72380;SHT30;60354;47.798;12.472;2023-07-13T00:57:06;18.33;90.08
72380;SHT30;60354;47.798;12.472;2023-07-13T00:59:34;18.32;90.18
72380;SHT30;60354;47.798;12.472;2023-07-13T01:02:01;18.29;91.20
72380;SHT30;60354;47.798;12.472;2023-07-13T01:04:27;18.29;90.95
72380;SHT30;60354;47.798;12.472;2023-07-13T01:06:54;18.26;90.26
72380;SHT30;60354;47.798;12.472;2023-07-13T01:09:20;18.29;91.17
72380;SHT30;60354;47.798;12.472;2023-07-13T01:11:47;18.39;90.53
72380;SHT30;60354;47.798;12.472;2023-07-13T01:14:13;18.33;90.42
72380;SHT30;60354;47.798;12.472;2023-07-13T01:16:40;18.28;90.64
72380;SHT30;60354;47.798;12.472;2023-07-13T01:22:07;18.21;91.37
72380;SHT30;60354;47.798;12.472;2023-07-13T01:24:35;18.25;91.02
72380;SHT30;60354;47.798;12.472;2023-07-13T01:27:02;18.18;90.80
72380;SHT30;60354;47.798;12.472;2023-07-13T01:29:30;18.21;90.78
72380;SHT30;60354;47.798;12.472;2023-07-13T01:31:56;18.22;90.44
72380;SHT30;60354;47.798;12.472;2023-07-13T01:34:24;18.28;90.15
72380;SHT30;60354;47.798;12.472;2023-07-13T01:36:50;18.32;89.99
72380;SHT30;60354;47.798;12.472;2023-07-13T01:39:22;18.32;89.50
72380;SHT30;60354;47.798;12.472;2023-07-13T01:41:48;18.33;89.36
72380;SHT30;60354;47.798;12.472;2023-07-13T01:44:14;18.33;89.76
72380;SHT30;60354;47.798;12.472;2023-07-13T01:46:39;18.39;88.99
72380;SHT30;60354;47.798;12.472;2023-07-13T01:49:05;18.39;89.22
72380;SHT30;60354;47.798;12.472;2023-07-13T01:51:30;18.32;89.93
72380;SHT30;60354;47.798;12.472;2023-07-13T01:53:56;18.29;89.59
72380;SHT30;60354;47.798;12.472;2023-07-13T01:56:22;18.33;88.92
72380;SHT30;60354;47.798;12.472;2023-07-13T01:58:48;18.29;89.46
72380;SHT30;60354;47.798;12.472;2023-07-13T02:01:14;18.25;89.12
72380;SHT30;60354;47.798;12.472;2023-07-13T02:03:40;18.32;89.53
72380;SHT30;60354;47.798;12.472;2023-07-13T02:06:05;18.30;90.08
72380;SHT30;60354;47.798;12.472;2023-07-13T02:08:32;18.29;89.99
72380;SHT30;60354;47.798;12.472;2023-07-13T02:10:58;18.36;90.29
72380;SHT30;60354;47.798;12.472;2023-07-13T02:13:24;18.28;90.49
72380;SHT30;60354;47.798;12.472;2023-07-13T02:15:51;18.16;90.82
72380;SHT30;60354;47.798;12.472;2023-07-13T02:18:16;18.15;91.14
72380;SHT30;60354;47.798;12.472;2023-07-13T02:20:43;18.15;91.38
72380;SHT30;60354;47.798;12.472;2023-07-13T02:23:08;18.15;91.14
72380;SHT30;60354;47.798;12.472;2023-07-13T02:25:34;18.12;91.34
72380;SHT30;60354;47.798;12.472;2023-07-13T02:27:59;18.05;91.37
72380;SHT30;60354;47.798;12.472;2023-07-13T02:30:25;18.09;90.26
72380;SHT30;60354;47.798;12.472;2023-07-13T02:32:53;18.12;90.42
72380;SHT30;60354;47.798;12.472;2023-07-13T02:35:18;18.15;90.17
72380;SHT30;60354;47.798;12.472;2023-07-13T02:37:44;18.18;89.73
72380;SHT30;60354;47.798;12.472;2023-07-13T02:40:09;18.13;89.62
72380;SHT30;60354;47.798;12.472;2023-07-13T02:42:35;18.16;89.85
72380;SHT30;60354;47.798;12.472;2023-07-13T02:45:01;18.10;89.95
72380;SHT30;60354;47.798;12.472;2023-07-13T02:47:26;18.09;89.68
72380;SHT30;60354;47.798;12.472;2023-07-13T02:49:52;18.10;89.81
72380;SHT30;60354;47.798;12.472;2023-07-13T02:52:18;18.16;89.04
72380;SHT30;60354;47.798;12.472;2023-07-13T02:54:43;18.16;89.55
72380;SHT30;60354;47.798;12.472;2023-07-13T02:57:09;18.21;89.03
72380;SHT30;60354;47.798;12.472;2023-07-13T02:59:35;18.26;88.79
72380;SHT30;60354;47.798;12.472;2023-07-13T03:02:02;18.30;88.86
72380;SHT30;60354;47.798;12.472;2023-07-13T03:04:29;18.33;88.59
72380;SHT30;60354;47.798;12.472;2023-07-13T03:06:54;18.39;88.33
72380;SHT30;60354;47.798;12.472;2023-07-13T03:09:24;18.40;88.16
72380;SHT30;60354;47.798;12.472;2023-07-13T03:11:53;18.43;87.95
72380;SHT30;60354;47.798;12.472;2023-07-13T03:14:25;18.42;87.72
72380;SHT30;60354;47.798;12.472;2023-07-13T03:16:51;18.45;87.32
72380;SHT30;60354;47.798;12.472;2023-07-13T03:19:19;18.32;87.94
72380;SHT30;60354;47.798;12.472;2023-07-13T03:21:49;18.32;87.88
72380;SHT30;60354;47.798;12.472;2023-07-13T03:24:14;18.22;88.61
72380;SHT30;60354;47.798;12.472;2023-07-13T03:26:41;18.26;88.40
72380;SHT30;60354;47.798;12.472;2023-07-13T03:29:06;18.24;88.70
72380;SHT30;60354;47.798;12.472;2023-07-13T03:31:34;18.28;88.98
72380;SHT30;60354;47.798;12.472;2023-07-13T03:34:00;18.22;88.87
72380;SHT30;60354;47.798;12.472;2023-07-13T03:36:29;18.25;89.29
72380;SHT30;60354;47.798;12.472;2023-07-13T03:39:00;18.22;89.22
72380;SHT30;60354;47.798;12.472;2023-07-13T03:41:44;18.16;89.52
72380;SHT30;60354;47.798;12.472;2023-07-13T03:44:11;18.13;89.79
72380;SHT30;60354;47.798;12.472;2023-07-13T03:46:37;18.08;90.10
72380;SHT30;60354;47.798;12.472;2023-07-13T03:49:04;18.09;90.05
72380;SHT30;60354;47.798;12.472;2023-07-13T03:51:30;18.08;89.85
72380;SHT30;60354;47.798;12.472;2023-07-13T03:53:56;18.08;90.10
72380;SHT30;60354;47.798;12.472;2023-07-13T03:56:22;18.10;90.06
72380;SHT30;60354;47.798;12.472;2023-07-13T03:58:49;18.16;90.18
72380;SHT30;60354;47.798;12.472;2023-07-13T04:01:21;18.12;89.70
72380;SHT30;60354;47.798;12.472;2023-07-13T04:03:47;18.01;89.93
72380;SHT30;60354;47.798;12.472;2023-07-13T04:06:19;18.06;89.84
72380;SHT30;60354;47.798;12.472;2023-07-13T04:08:53;18.10;90.19
72380;SHT30;60354;47.798;12.472;2023-07-13T04:11:21;18.15;89.55
72380;SHT30;60354;47.798;12.472;2023-07-13T04:13:47;18.15;89.57
72380;SHT30;60354;47.798;12.472;2023-07-13T04:16:14;18.16;89.63
72380;SHT30;60354;47.798;12.472;2023-07-13T04:18:40;18.16;88.93
72380;SHT30;60354;47.798;12.472;2023-07-13T04:21:06;18.15;89.17
72380;SHT30;60354;47.798;12.472;2023-07-13T04:23:32;18.15;89.33
72380;SHT30;60354;47.798;12.472;2023-07-13T04:25:57;18.15;89.42
72380;SHT30;60354;47.798;12.472;2023-07-13T04:28:25;18.13;88.84
72380;SHT30;60354;47.798;12.472;2023-07-13T04:30:50;18.24;88.03
72380;SHT30;60354;47.798;12.472;2023-07-13T04:33:16;18.22;87.45
72380;SHT30;60354;47.798;12.472;2023-07-13T04:35:43;18.10;88.38
72380;SHT30;60354;47.798;12.472;2023-07-13T04:38:09;18.09;89.02
72380;SHT30;60354;47.798;12.472;2023-07-13T04:40:37;18.13;88.99
72380;SHT30;60354;47.798;12.472;2023-07-13T04:43:02;18.25;89.00
72380;SHT30;60354;47.798;12.472;2023-07-13T04:45:28;18.28;88.72
72380;SHT30;60354;47.798;12.472;2023-07-13T04:47:53;18.28;88.80
72380;SHT30;60354;47.798;12.472;2023-07-13T04:50:19;18.36;89.00
72380;SHT30;60354;47.798;12.472;2023-07-13T04:52:51;18.37;88.24
72380;SHT30;60354;47.798;12.472;2023-07-13T04:55:18;18.45;88.29
72380;SHT30;60354;47.798;12.472;2023-07-13T04:57:43;18.52;88.51
72380;SHT30;60354;47.798;12.472;2023-07-13T05:00:09;18.57;88.30
72380;SHT30;60354;47.798;12.472;2023-07-13T05:02:38;18.71;88.00
72380;SHT30;60354;47.798;12.472;2023-07-13T05:05:04;18.68;87.14
72380;SHT30;60354;47.798;12.472;2023-07-13T05:07:29;18.71;87.39
72380;SHT30;60354;47.798;12.472;2023-07-13T05:09:55;18.83;87.82
72380;SHT30;60354;47.798;12.472;2023-07-13T05:12:21;18.80;86.83
72380;SHT30;60354;47.798;12.472;2023-07-13T05:14:46;18.88;87.30
72380;SHT30;60354;47.798;12.472;2023-07-13T05:17:14;18.80;87.63
72380;SHT30;60354;47.798;12.472;2023-07-13T05:19:39;18.78;88.90
72380;SHT30;60354;47.798;12.472;2023-07-13T05:22:04;18.68;88.83
72380;SHT30;60354;47.798;12.472;2023-07-13T05:24:30;18.59;89.89
72380;SHT30;60354;47.798;12.472;2023-07-13T05:26:56;18.43;89.17
72380;SHT30;60354;47.798;12.472;2023-07-13T05:29:22;18.46;89.49
72380;SHT30;60354;47.798;12.472;2023-07-13T05:31:48;18.42;89.88
72380;SHT30;60354;47.798;12.472;2023-07-13T05:34:14;18.32;89.63
72380;SHT30;60354;47.798;12.472;2023-07-13T05:36:40;18.18;91.04
72380;SHT30;60354;47.798;12.472;2023-07-13T05:39:05;18.15;91.87
72380;SHT30;60354;47.798;12.472;2023-07-13T05:41:31;18.16;91.94
72380;SHT30;60354;47.798;12.472;2023-07-13T05:43:56;18.05;91.96
72380;SHT30;60354;47.798;12.472;2023-07-13T05:46:22;17.95;92.63
72380;SHT30;60354;47.798;12.472;2023-07-13T05:48:47;17.78;93.27
72380;SHT30;60354;47.798;12.472;2023-07-13T05:51:13;17.70;93.08
72380;SHT30;60354;47.798;12.472;2023-07-13T05:53:39;17.73;93.24
72380;SHT30;60354;47.798;12.472;2023-07-13T05:56:04;17.74;92.97
72380;SHT30;60354;47.798;12.472;2023-07-13T05:58:30;17.84;92.22
72380;SHT30;60354;47.798;12.472;2023-07-13T06:01:01;17.89;92.51
72380;SHT30;60354;47.798;12.472;2023-07-13T06:03:27;17.95;91.60
72380;SHT30;60354;47.798;12.472;2023-07-13T06:05:52;17.85;90.47
72380;SHT30;60354;47.798;12.472;2023-07-13T06:08:18;17.85;90.22
72380;SHT30;60354;47.798;12.472;2023-07-13T06:10:43;17.87;90.43
72380;SHT30;60354;47.798;12.472;2023-07-13T06:13:09;17.91;90.32
72380;SHT30;60354;47.798;12.472;2023-07-13T06:15:34;18.01;90.31
72380;SHT30;60354;47.798;12.472;2023-07-13T06:17:59;18.09;90.05
72380;SHT30;60354;47.798;12.472;2023-07-13T06:20:25;18.13;89.97
72380;SHT30;60354;47.798;12.472;2023-07-13T06:22:50;18.16;89.48
72380;SHT30;60354;47.798;12.472;2023-07-13T06:25:16;18.19;89.26
72380;SHT30;60354;47.798;12.472;2023-07-13T06:27:42;18.22;89.72
72380;SHT30;60354;47.798;12.472;2023-07-13T06:30:08;18.25;88.77
72380;SHT30;60354;47.798;12.472;2023-07-13T06:32:34;18.29;88.71
72380;SHT30;60354;47.798;12.472;2023-07-13T06:35:00;18.40;88.71
72380;SHT30;60354;47.798;12.472;2023-07-13T06:37:25;18.45;88.38
72380;SHT30;60354;47.798;12.472;2023-07-13T06:39:50;18.46;88.44
72380;SHT30;60354;47.798;12.472;2023-07-13T06:42:16;18.68;87.96
72380;SHT30;60354;47.798;12.472;2023-07-13T06:44:42;19.03;86.61
72380;SHT30;60354;47.798;12.472;2023-07-13T06:47:08;19.01;87.43
72380;SHT30;60354;47.798;12.472;2023-07-13T06:49:33;19.08;87.39
72380;SHT30;60354;47.798;12.472;2023-07-13T06:51:59;19.08;87.57
72380;SHT30;60354;47.798;12.472;2023-07-13T06:54:24;19.14;87.76
72380;SHT30;60354;47.798;12.472;2023-07-13T06:56:50;19.22;87.43
72380;SHT30;60354;47.798;12.472;2023-07-13T06:59:15;19.25;87.19
72380;SHT30;60354;47.798;12.472;2023-07-13T07:01:41;19.65;83.84
72380;SHT30;60354;47.798;12.472;2023-07-13T07:04:06;19.90;82.85
72380;SHT30;60354;47.798;12.472;2023-07-13T07:06:32;19.76;83.56
72380;SHT30;60354;47.798;12.472;2023-07-13T07:08:57;19.65;84.39
72380;SHT30;60354;47.798;12.472;2023-07-13T07:11:25;19.56;84.98
72380;SHT30;60354;47.798;12.472;2023-07-13T07:13:52;19.34;84.20
72380;SHT30;60354;47.798;12.472;2023-07-13T07:16:18;19.35;85.94
72380;SHT30;60354;47.798;12.472;2023-07-13T07:18:45;19.25;86.08
72380;SHT30;60354;47.798;12.472;2023-07-13T07:21:11;19.18;85.97
72380;SHT30;60354;47.798;12.472;2023-07-13T07:23:37;19.14;85.60
72380;SHT30;60354;47.798;12.472;2023-07-13T07:26:02;19.07;85.18
72380;SHT30;60354;47.798;12.472;2023-07-13T07:28:28;19.01;85.38
72380;SHT30;60354;47.798;12.472;2023-07-13T07:30:57;19.12;86.58
72380;SHT30;60354;47.798;12.472;2023-07-13T07:33:23;19.12;87.49
72380;SHT30;60354;47.798;12.472;2023-07-13T07:35:49;19.10;87.48
72380;SHT30;60354;47.798;12.472;2023-07-13T07:38:15;19.04;87.30
72380;SHT30;60354;47.798;12.472;2023-07-13T07:40:41;19.08;87.35
72380;SHT30;60354;47.798;12.472;2023-07-13T07:43:08;19.10;87.70
72380;SHT30;60354;47.798;12.472;2023-07-13T07:45:33;19.10;87.83
72380;SHT30;60354;47.798;12.472;2023-07-13T07:47:59;19.10;88.47
72380;SHT30;60354;47.798;12.472;2023-07-13T07:50:25;19.07;89.01
72380;SHT30;60354;47.798;12.472;2023-07-13T07:52:51;19.06;89.43
72380;SHT30;60354;47.798;12.472;2023-07-13T07:55:16;18.97;89.40
72380;SHT30;60354;47.798;12.472;2023-07-13T07:57:42;18.97;88.49
72380;SHT30;60354;47.798;12.472;2023-07-13T08:00:08;19.00;87.93
72380;SHT30;60354;47.798;12.472;2023-07-13T08:02:40;19.14;87.52
72380;SHT30;60354;47.798;12.472;2023-07-13T08:05:07;19.24;87.20
72380;SHT30;60354;47.798;12.472;2023-07-13T08:07:33;19.34;87.59
72380;SHT30;60354;47.798;12.472;2023-07-13T08:09:59;19.54;85.91
72380;SHT30;60354;47.798;12.472;2023-07-13T08:12:24;19.55;86.47
72380;SHT30;60354;47.798;12.472;2023-07-13T08:14:50;19.73;85.61
72380;SHT30;60354;47.798;12.472;2023-07-13T08:17:20;19.75;84.63
72380;SHT30;60354;47.798;12.472;2023-07-13T08:19:45;19.89;85.42
72380;SHT30;60354;47.798;12.472;2023-07-13T08:22:11;19.94;84.37
72380;SHT30;60354;47.798;12.472;2023-07-13T08:24:37;19.96;83.26
72380;SHT30;60354;47.798;12.472;2023-07-13T08:27:02;19.86;83.02
72380;SHT30;60354;47.798;12.472;2023-07-13T08:29:28;19.87;83.52
72380;SHT30;60354;47.798;12.472;2023-07-13T08:31:53;19.79;86.00
72380;SHT30;60354;47.798;12.472;2023-07-13T08:34:19;19.69;82.46
72380;SHT30;60354;47.798;12.472;2023-07-13T08:36:45;19.69;85.38
72380;SHT30;60354;47.798;12.472;2023-07-13T08:39:11;19.75;83.64
72380;SHT30;60354;47.798;12.472;2023-07-13T08:41:36;19.77;84.15
72380;SHT30;60354;47.798;12.472;2023-07-13T08:44:04;19.66;83.45
72380;SHT30;60354;47.798;12.472;2023-07-13T08:46:36;19.72;83.57
72380;SHT30;60354;47.798;12.472;2023-07-13T08:49:11;19.83;84.31
72380;SHT30;60354;47.798;12.472;2023-07-13T08:54:29;20.03;82.11
72380;SHT30;60354;47.798;12.472;2023-07-13T08:56:56;20.16;83.43
72380;SHT30;60354;47.798;12.472;2023-07-13T08:59:28;20.17;82.95
72380;SHT30;60354;47.798;12.472;2023-07-13T09:02:25;20.24;82.18
72380;SHT30;60354;47.798;12.472;2023-07-13T09:10:32;20.31;82.08
72380;SHT30;60354;47.798;12.472;2023-07-13T09:13:07;20.44;80.66
72380;SHT30;60354;47.798;12.472;2023-07-13T09:15:40;20.44;80.80
72380;SHT30;60354;47.798;12.472;2023-07-13T09:23:23;20.71;78.95
72380;SHT30;60354;47.798;12.472;2023-07-13T09:25:53;20.69;76.79
72380;SHT30;60354;47.798;12.472;2023-07-13T09:28:27;20.81;76.40
72380;SHT30;60354;47.798;12.472;2023-07-13T09:31:04;20.85;76.13
72380;SHT30;60354;47.798;12.472;2023-07-13T09:33:31;20.88;76.39
72380;SHT30;60354;47.798;12.472;2023-07-13T09:35:57;20.81;77.33
72380;SHT30;60354;47.798;12.472;2023-07-13T09:38:29;20.94;77.31
72380;SHT30;60354;47.798;12.472;2023-07-13T09:41:19;21.08;75.16
72380;SHT30;60354;47.798;12.472;2023-07-13T09:46:51;21.16;73.84
72380;SHT30;60354;47.798;12.472;2023-07-13T09:49:18;21.19;72.32
72380;SHT30;60354;47.798;12.472;2023-07-13T09:51:44;21.27;73.11
72380;SHT30;60354;47.798;12.472;2023-07-13T09:54:18;21.23;71.66
72380;SHT30;60354;47.798;12.472;2023-07-13T09:56:44;21.25;73.23
72380;SHT30;60354;47.798;12.472;2023-07-13T09:59:28;21.39;73.09
72380;SHT30;60354;47.798;12.472;2023-07-13T10:01:54;21.16;72.86
72380;SHT30;60354;47.798;12.472;2023-07-13T10:04:33;21.05;74.68
72380;SHT30;60354;47.798;12.472;2023-07-13T10:07:07;21.02;74.43
72380;SHT30;60354;47.798;12.472;2023-07-13T10:09:33;20.89;73.97
72380;SHT30;60354;47.798;12.472;2023-07-13T10:11:58;20.75;74.64
72380;SHT30;60354;47.798;12.472;2023-07-13T10:14:24;20.77;76.48
72380;SHT30;60354;47.798;12.472;2023-07-13T10:16:58;20.65;78.04
72380;SHT30;60354;47.798;12.472;2023-07-13T10:19:26;20.68;77.62
72380;SHT30;60354;47.798;12.472;2023-07-13T10:21:54;20.57;77.69
72380;SHT30;60354;47.798;12.472;2023-07-13T10:24:30;20.54;77.78
72380;SHT30;60354;47.798;12.472;2023-07-13T10:29:45;20.44;78.21
72380;SHT30;60354;47.798;12.472;2023-07-13T10:32:12;20.44;78.61
72380;SHT30;60354;47.798;12.472;2023-07-13T10:34:39;20.38;78.24
72380;SHT30;60354;47.798;12.472;2023-07-13T10:37:07;20.27;78.21
72380;SHT30;60354;47.798;12.472;2023-07-13T10:39:37;20.21;78.35
72380;SHT30;60354;47.798;12.472;2023-07-13T10:42:06;20.20;77.33
72380;SHT30;60354;47.798;12.472;2023-07-13T10:44:37;19.99;76.48
72380;SHT30;60354;47.798;12.472;2023-07-13T10:47:07;19.62;77.34
72380;SHT30;60354;47.798;12.472;2023-07-13T10:49:34;19.66;78.34
72380;SHT30;60354;47.798;12.472;2023-07-13T10:52:00;19.38;79.19
72380;SHT30;60354;47.798;12.472;2023-07-13T10:57:24;19.19;79.15
72380;SHT30;60354;47.798;12.472;2023-07-13T11:02:28;19.32;80.10
72380;SHT30;60354;47.798;12.472;2023-07-13T11:04:55;19.35;80.85
72380;SHT30;60354;47.798;12.472;2023-07-13T11:07:29;19.34;80.87
72380;SHT30;60354;47.798;12.472;2023-07-13T11:09:56;19.34;81.10
72380;SHT30;60354;47.798;12.472;2023-07-13T11:17:38;19.41;80.69
72380;SHT30;60354;47.798;12.472;2023-07-13T11:22:49;19.42;80.91
72380;SHT30;60354;47.798;12.472;2023-07-13T11:28:05;19.66;82.10
72380;SHT30;60354;47.798;12.472;2023-07-13T11:33:20;19.59;78.99
72380;SHT30;60354;47.798;12.472;2023-07-13T11:35:57;19.54;78.18
72380;SHT30;60354;47.798;12.472;2023-07-13T11:40:56;19.46;78.65
72380;SHT30;60354;47.798;12.472;2023-07-13T11:43:23;19.55;78.99
72380;SHT30;60354;47.798;12.472;2023-07-13T11:45:50;19.86;78.92
72380;SHT30;60354;47.798;12.472;2023-07-13T11:48:27;19.70;77.67
72380;SHT30;60354;47.798;12.472;2023-07-13T11:50:57;19.56;79.61
72380;SHT30;60354;47.798;12.472;2023-07-13T11:53:26;19.27;80.59
72380;SHT30;60354;47.798;12.472;2023-07-13T11:55:52;18.96;82.24
72380;SHT30;60354;47.798;12.472;2023-07-13T11:58:21;18.77;83.16
72380;SHT30;60354;47.798;12.472;2023-07-13T12:00:49;18.87;83.13
72380;SHT30;60354;47.798;12.472;2023-07-13T12:03:19;18.71;84.82
72380;SHT30;60354;47.798;12.472;2023-07-13T12:06:03;18.59;85.26
72380;SHT30;60354;47.798;12.472;2023-07-13T12:08:31;18.47;83.32
72380;SHT30;60354;47.798;12.472;2023-07-13T12:11:06;18.53;84.41
72380;SHT30;60354;47.798;12.472;2023-07-13T12:13:37;18.76;83.41
72380;SHT30;60354;47.798;12.472;2023-07-13T12:16:11;18.91;83.32
72380;SHT30;60354;47.798;12.472;2023-07-13T12:18:37;18.91;81.88
72380;SHT30;60354;47.798;12.472;2023-07-13T12:21:04;18.84;82.44
72380;SHT30;60354;47.798;12.472;2023-07-13T12:23:32;18.97;82.16
72380;SHT30;60354;47.798;12.472;2023-07-13T12:26:04;18.98;81.06
72380;SHT30;60354;47.798;12.472;2023-07-13T12:28:36;19.07;82.18
72380;SHT30;60354;47.798;12.472;2023-07-13T12:31:18;19.27;81.81
72380;SHT30;60354;47.798;12.472;2023-07-13T12:33:47;19.48;82.85
72380;SHT30;60354;47.798;12.472;2023-07-13T12:36:13;19.66;81.31
72380;SHT30;60354;47.798;12.472;2023-07-13T12:38:38;19.62;80.56
72380;SHT30;60354;47.798;12.472;2023-07-13T12:41:08;19.82;78.33
72380;SHT30;60354;47.798;12.472;2023-07-13T12:43:36;19.89;76.28
72380;SHT30;60354;47.798;12.472;2023-07-13T12:46:20;20.07;76.53
72380;SHT30;60354;47.798;12.472;2023-07-13T12:48:57;20.27;73.53
72380;SHT30;60354;47.798;12.472;2023-07-13T12:51:27;20.16;72.11
72380;SHT30;60354;47.798;12.472;2023-07-13T12:54:19;20.17;72.87
72380;SHT30;60354;47.798;12.472;2023-07-13T12:56:49;20.18;71.46
72380;SHT30;60354;47.798;12.472;2023-07-13T12:59:20;20.36;72.37
72380;SHT30;60354;47.798;12.472;2023-07-13T13:01:46;20.37;72.63
72380;SHT30;60354;47.798;12.472;2023-07-13T13:04:12;20.71;74.36
72380;SHT30;60354;47.798;12.472;2023-07-13T13:06:38;20.82;74.93
72380;SHT30;60354;47.798;12.472;2023-07-13T13:09:12;20.88;71.33
72380;SHT30;60354;47.798;12.472;2023-07-13T13:11:39;20.81;73.91
72380;SHT30;60354;47.798;12.472;2023-07-13T13:14:05;20.89;70.60
72380;SHT30;60354;47.798;12.472;2023-07-13T13:19:23;20.94;69.82
72380;SHT30;60354;47.798;12.472;2023-07-13T13:21:49;21.29;71.27
72380;SHT30;60354;47.798;12.472;2023-07-13T13:24:21;21.42;73.15
72380;SHT30;60354;47.798;12.472;2023-07-13T13:26:47;21.46;70.60
72380;SHT30;60354;47.798;12.472;2023-07-13T13:29:23;21.67;71.05
72380;SHT30;60354;47.798;12.472;2023-07-13T13:31:52;21.84;72.07
72380;SHT30;60354;47.798;12.472;2023-07-13T13:34:20;21.74;71.38
72380;SHT30;60354;47.798;12.472;2023-07-13T13:36:47;21.58;68.42
72380;SHT30;60354;47.798;12.472;2023-07-13T13:39:27;21.66;70.99
72380;SHT30;60354;47.798;12.472;2023-07-13T13:41:53;21.81;70.10
72380;SHT30;60354;47.798;12.472;2023-07-13T13:44:20;21.76;69.19
72380;SHT30;60354;47.798;12.472;2023-07-13T13:46:56;21.84;69.93
72380;SHT30;60354;47.798;12.472;2023-07-13T13:49:25;22.18;78.90
72380;SHT30;60354;47.798;12.472;2023-07-13T13:51:52;22.31;69.95
72380;SHT30;60354;47.798;12.472;2023-07-13T13:54:19;22.68;74.29
72380;SHT30;60354;47.798;12.472;2023-07-13T13:56:47;22.90;70.06
72380;SHT30;60354;47.798;12.472;2023-07-13T13:59:13;23.00;70.99
72380;SHT30;60354;47.798;12.472;2023-07-13T14:01:40;22.87;68.49
72380;SHT30;60354;47.798;12.472;2023-07-13T14:04:10;23.08;70.68
72380;SHT30;60354;47.798;12.472;2023-07-13T14:06:39;23.21;69.95
72380;SHT30;60354;47.798;12.472;2023-07-13T14:09:10;23.28;68.05
72380;SHT30;60354;47.798;12.472;2023-07-13T14:11:36;23.23;67.44
72380;SHT30;60354;47.798;12.472;2023-07-13T14:14:02;23.17;66.37
72380;SHT30;60354;47.798;12.472;2023-07-13T14:16:31;23.20;67.19
72380;SHT30;60354;47.798;12.472;2023-07-13T14:18:58;23.17;70.02
72380;SHT30;60354;47.798;12.472;2023-07-13T14:21:26;23.14;68.33
72380;SHT30;60354;47.798;12.472;2023-07-13T14:23:52;23.18;68.99
72380;SHT30;60354;47.798;12.472;2023-07-13T14:26:23;23.03;69.01
72380;SHT30;60354;47.798;12.472;2023-07-13T14:28:52;23.08;68.02
72380;SHT30;60354;47.798;12.472;2023-07-13T14:31:18;23.20;69.67
72380;SHT30;60354;47.798;12.472;2023-07-13T14:33:44;22.92;68.19
72380;SHT30;60354;47.798;12.472;2023-07-13T14:36:30;23.00;68.88
72380;SHT30;60354;47.798;12.472;2023-07-13T14:38:57;23.04;67.02
72380;SHT30;60354;47.798;12.472;2023-07-13T14:41:23;23.00;66.23
72380;SHT30;60354;47.798;12.472;2023-07-13T14:43:49;22.73;66.65
72380;SHT30;60354;47.798;12.472;2023-07-13T14:46:30;22.86;69.60
72380;SHT30;60354;47.798;12.472;2023-07-13T14:49:05;22.96;67.42
72380;SHT30;60354;47.798;12.472;2023-07-13T14:51:32;23.07;67.07
72380;SHT30;60354;47.798;12.472;2023-07-13T14:54:04;23.18;67.07
72380;SHT30;60354;47.798;12.472;2023-07-13T14:56:30;23.17;64.54
72380;SHT30;60354;47.798;12.472;2023-07-13T14:58:55;23.37;66.68
72380;SHT30;60354;47.798;12.472;2023-07-13T15:01:22;23.46;67.43
72380;SHT30;60354;47.798;12.472;2023-07-13T15:03:50;23.51;64.50
72380;SHT30;60354;47.798;12.472;2023-07-13T15:06:16;23.53;67.28
72380;SHT30;60354;47.798;12.472;2023-07-13T15:08:42;23.38;64.06
72380;SHT30;60354;47.798;12.472;2023-07-13T15:11:08;23.17;64.82
72380;SHT30;60354;47.798;12.472;2023-07-13T15:13:40;23.13;63.97
72380;SHT30;60354;47.798;12.472;2023-07-13T15:16:36;23.03;63.66
72380;SHT30;60354;47.798;12.472;2023-07-13T15:19:02;23.24;65.91
72380;SHT30;60354;47.798;12.472;2023-07-13T15:21:27;23.44;65.24
72380;SHT30;60354;47.798;12.472;2023-07-13T15:24:00;23.46;66.65
72380;SHT30;60354;47.798;12.472;2023-07-13T15:26:26;23.57;65.46
72380;SHT30;60354;47.798;12.472;2023-07-13T15:28:51;23.57;64.35
72380;SHT30;60354;47.798;12.472;2023-07-13T15:31:20;23.40;63.56
72380;SHT30;60354;47.798;12.472;2023-07-13T15:33:47;23.26;63.93
72380;SHT30;60354;47.798;12.472;2023-07-13T15:36:15;22.99;64.98
72380;SHT30;60354;47.798;12.472;2023-07-13T15:38:42;23.02;64.88
72380;SHT30;60354;47.798;12.472;2023-07-13T15:41:23;23.06;67.48
72380;SHT30;60354;47.798;12.472;2023-07-13T15:43:50;23.14;65.52
72380;SHT30;60354;47.798;12.472;2023-07-13T15:46:17;23.17;63.90
72380;SHT30;60354;47.798;12.472;2023-07-13T15:48:43;23.17;63.97
72380;SHT30;60354;47.798;12.472;2023-07-13T15:51:15;23.21;63.61
72380;SHT30;60354;47.798;12.472;2023-07-13T15:53:43;23.34;64.40
72380;SHT30;60354;47.798;12.472;2023-07-13T15:56:22;23.03;63.54
72380;SHT30;60354;47.798;12.472;2023-07-13T15:58:50;22.80;62.80
72380;SHT30;60354;47.798;12.472;2023-07-13T16:01:16;22.82;64.90
72380;SHT30;60354;47.798;12.472;2023-07-13T16:03:42;22.83;64.53
72380;SHT30;60354;47.798;12.472;2023-07-13T16:06:35;23.03;67.46